createdAt,value
2022-09-10T00:00:59.678Z,20.20
2022-09-10T00:03:27.467Z,20.72
2022-09-10T00:05:54.834Z,20.82
2022-09-10T00:08:22.183Z,20.69
2022-09-10T00:10:51.503Z,20.56
2022-09-10T00:13:20.658Z,20.89
2022-09-10T00:15:51.787Z,20.78
2022-09-10T00:18:22.040Z,20.78
2022-09-10T00:20:51.256Z,21.20
2022-09-10T00:23:19.873Z,21.30
2022-09-10T00:25:47.233Z,20.89
2022-09-10T00:28:14.815Z,21.20
2022-09-10T00:30:43.344Z,21.35
2022-09-10T00:33:10.653Z,21.22
2022-09-10T00:35:38.100Z,21.23
2022-09-10T00:38:06.188Z,21.36
2022-09-10T00:40:33.713Z,21.51
2022-09-10T00:43:01.057Z,21.26
2022-09-10T00:45:29.947Z,21.57
2022-09-10T00:48:03.093Z,21.03
2022-09-10T00:50:32.402Z,21.14
2022-09-10T00:53:01.380Z,21.41
2022-09-10T00:55:28.977Z,21.36
2022-09-10T00:57:59.628Z,21.33
2022-09-10T01:00:27.047Z,21.30
2022-09-10T01:02:55.480Z,21.52
2022-09-10T01:05:23.454Z,21.70
2022-09-10T01:07:52.808Z,21.59
2022-09-10T01:10:26.191Z,21.34
2022-09-10T01:13:31.864Z,21.41
2022-09-10T01:16:25.054Z,21.23
2022-09-10T01:19:14.341Z,21.09
2022-09-10T01:21:57.480Z,21.29
2022-09-10T01:24:36.912Z,21.04
2022-09-10T01:27:28.637Z,20.82
2022-09-10T01:30:03.457Z,20.83
2022-09-10T01:32:47.808Z,20.74
2022-09-10T01:35:21.121Z,20.86
2022-09-10T01:37:52.071Z,21.02
2022-09-10T01:40:19.859Z,20.83
2022-09-10T01:42:47.285Z,20.84
2022-09-10T01:45:15.307Z,20.93
2022-09-10T01:48:16.561Z,20.76
2022-09-10T01:51:16.290Z,21.09
2022-09-10T01:53:54.067Z,20.42
2022-09-10T01:56:35.571Z,20.52
2022-09-10T01:59:28.048Z,20.91
2022-09-10T02:02:02.053Z,20.23
2022-09-10T02:04:29.704Z,19.74
2022-09-10T02:06:57.533Z,20.25
2022-09-10T02:09:24.904Z,20.43
2022-09-10T02:11:53.698Z,20.71
2022-09-10T02:14:21.900Z,20.01
2022-09-10T02:17:00.021Z,19.96
2022-09-10T02:19:27.712Z,19.22
2022-09-10T02:21:56.853Z,19.34
2022-09-10T02:24:25.038Z,19.53
2022-09-10T02:26:52.350Z,18.92
2022-09-10T02:29:19.947Z,18.31
2022-09-10T02:31:47.511Z,18.17
2022-09-10T02:34:16.038Z,18.79
2022-09-10T02:36:45.637Z,18.80
2022-09-10T02:39:14.400Z,18.68
2022-09-10T02:41:41.744Z,18.01
2022-09-10T02:44:09.415Z,17.88
2022-09-10T02:46:38.249Z,17.67
2022-09-10T02:49:06.187Z,17.93
2022-09-10T02:51:36.919Z,18.44
2022-09-10T02:54:04.926Z,18.08
2022-09-10T02:56:32.461Z,17.99
2022-09-10T02:59:00.441Z,17.88
2022-09-10T03:01:28.534Z,17.59
2022-09-10T03:03:58.176Z,18.11
2022-09-10T03:06:26.030Z,18.00
2022-09-10T03:08:55.326Z,17.94
2022-09-10T03:11:27.521Z,18.48
2022-09-10T03:13:55.490Z,18.19
2022-09-10T03:16:24.233Z,18.10
2022-09-10T03:18:52.318Z,17.96
2022-09-10T03:21:21.664Z,17.88
2022-09-10T03:23:50.646Z,18.00
2022-09-10T03:26:20.061Z,18.55
2022-09-10T03:28:47.924Z,18.94
2022-09-10T03:31:15.758Z,18.95
2022-09-10T03:33:43.599Z,19.00
2022-09-10T03:36:13.323Z,18.88
2022-09-10T03:38:42.349Z,18.27
2022-09-10T03:41:09.830Z,18.64
2022-09-10T03:43:38.394Z,18.18
2022-09-10T03:46:06.105Z,18.16
2022-09-10T03:48:35.244Z,18.64
2022-09-10T03:51:03.357Z,18.24
2022-09-10T03:53:30.709Z,18.24
2022-09-10T03:55:58.448Z,18.57
2022-09-10T03:58:26.791Z,18.51
2022-09-10T04:00:54.322Z,18.56
2022-09-10T04:03:23.037Z,18.74
2022-09-10T04:05:51.889Z,18.26
2022-09-10T04:08:20.567Z,17.90
2022-09-10T04:10:48.368Z,18.10
2022-09-10T04:13:16.248Z,18.30
2022-09-10T04:15:46.125Z,18.34
2022-09-10T04:18:13.885Z,17.62
2022-09-10T04:20:42.257Z,18.20
2022-09-10T04:23:09.809Z,18.21
2022-09-10T04:25:37.925Z,17.90
2022-09-10T04:28:05.286Z,18.18
2022-09-10T04:30:33.109Z,17.89
2022-09-10T04:33:01.332Z,18.25
2022-09-10T04:35:29.983Z,17.75
2022-09-10T04:37:58.282Z,18.14
2022-09-10T04:40:27.247Z,17.76
2022-09-10T04:42:54.777Z,18.14
2022-09-10T04:45:22.363Z,17.23
2022-09-10T04:47:50.098Z,17.39
2022-09-10T04:50:17.546Z,17.31
2022-09-10T04:53:00.425Z,17.65
2022-09-10T04:55:28.136Z,17.40
2022-09-10T04:57:55.534Z,17.43
2022-09-10T05:00:23.144Z,17.82
2022-09-10T05:02:50.901Z,17.41
2022-09-10T05:05:18.386Z,17.81
2022-09-10T05:07:45.852Z,17.48
2022-09-10T05:10:13.493Z,17.87
2022-09-10T05:12:41.200Z,17.19
2022-09-10T05:15:09.988Z,17.06
2022-09-10T05:17:37.695Z,17.76
2022-09-10T05:20:07.662Z,17.98
2022-09-10T05:22:40.354Z,18.21
2022-09-10T05:25:09.234Z,18.17
2022-09-10T05:27:37.245Z,18.09
2022-09-10T05:30:06.089Z,18.48
2022-09-10T05:32:35.733Z,18.65
2022-09-10T05:35:05.355Z,18.40
2022-09-10T05:37:36.892Z,18.39
2022-09-10T05:40:06.256Z,17.83
2022-09-10T05:42:34.258Z,18.11
2022-09-10T05:45:01.652Z,18.14
2022-09-10T05:47:31.099Z,19.07
2022-09-10T05:49:59.463Z,19.09
2022-09-10T05:52:26.784Z,19.26
2022-09-10T05:54:56.443Z,19.54
2022-09-10T05:57:24.260Z,18.73
2022-09-10T05:59:52.250Z,19.36
2022-09-10T06:02:23.941Z,19.26
2022-09-10T06:04:52.770Z,19.48
2022-09-10T06:07:20.646Z,19.02
2022-09-10T06:09:48.068Z,19.55
2022-09-10T06:12:18.941Z,18.82
2022-09-10T06:14:46.555Z,19.51
2022-09-10T06:17:13.910Z,18.87
2022-09-10T06:19:41.799Z,19.61
2022-09-10T06:22:11.037Z,19.93
2022-09-10T06:24:39.040Z,19.13
2022-09-10T06:27:06.899Z,19.02
2022-09-10T06:29:36.691Z,18.62
2022-09-10T06:32:04.954Z,19.46
2022-09-10T06:34:32.645Z,20.05
2022-09-10T06:37:01.163Z,20.24
2022-09-10T06:39:29.967Z,19.82
2022-09-10T06:41:58.529Z,19.50
2022-09-10T06:44:29.256Z,19.41
2022-09-10T06:47:39.049Z,19.23
2022-09-10T06:49:44.581Z,18.59
2022-09-10T06:52:11.937Z,18.89
2022-09-10T06:54:39.479Z,19.12
2022-09-10T06:57:11.638Z,18.68
2022-09-10T06:59:38.993Z,19.72
2022-09-10T07:02:06.435Z,19.51
2022-09-10T07:04:34.225Z,19.57
2022-09-10T07:07:02.540Z,19.51
2022-09-10T07:09:29.953Z,19.20
2022-09-10T07:11:57.695Z,19.22
2022-09-10T07:14:25.506Z,18.85
2022-09-10T07:16:53.503Z,18.72
2022-09-10T07:19:22.435Z,18.91
2022-09-10T07:21:50.280Z,18.74
2022-09-10T07:24:19.998Z,18.86
2022-09-10T07:26:48.684Z,18.51
2022-09-10T07:29:18.330Z,18.50
2022-09-10T07:31:47.284Z,18.47
2022-09-10T07:34:15.804Z,18.43
2022-09-10T07:36:43.139Z,18.97
2022-09-10T07:39:10.637Z,17.84
2022-09-10T07:41:38.938Z,18.39
2022-09-10T07:44:06.738Z,18.95
2022-09-10T07:46:34.562Z,18.83
2022-09-10T07:49:02.965Z,18.79
2022-09-10T07:51:33.087Z,18.15
2022-09-10T07:54:00.594Z,18.53
2022-09-10T07:56:32.403Z,18.76
2022-09-10T07:59:02.675Z,18.67
2022-09-10T08:01:31.788Z,18.66
2022-09-10T08:04:00.360Z,19.32
2022-09-10T08:06:28.243Z,19.96
2022-09-10T08:08:56.421Z,20.04
2022-09-10T08:11:24.356Z,20.20
2022-09-10T08:13:52.855Z,19.76
2022-09-10T08:16:23.142Z,19.82
2022-09-10T08:18:51.423Z,20.24
2022-09-10T08:21:19.527Z,20.17
2022-09-10T08:23:51.058Z,20.40
2022-09-10T08:26:18.868Z,21.10
2022-09-10T08:28:47.900Z,21.17
2022-09-10T08:31:16.493Z,21.27
2022-09-10T08:33:48.585Z,21.62
2022-09-10T08:36:17.056Z,22.16
2022-09-10T08:38:45.323Z,21.07
2022-09-10T08:41:35.729Z,20.69
2022-09-10T08:44:10.170Z,20.09
2022-09-10T08:46:43.586Z,19.83
2022-09-10T08:49:30.590Z,20.23
2022-09-10T08:52:37.504Z,20.48
2022-09-10T08:55:17.117Z,20.98
2022-09-10T08:57:55.221Z,20.17
2022-09-10T09:00:28.853Z,20.27
2022-09-10T09:03:00.225Z,20.34
2022-09-10T09:05:28.282Z,20.37
2022-09-10T09:07:57.219Z,20.45
2022-09-10T09:10:25.188Z,20.93
2022-09-10T09:13:15.118Z,21.50
2022-09-10T09:16:07.380Z,21.32
2022-09-10T09:18:56.164Z,21.56
2022-09-10T09:21:31.078Z,21.29
2022-09-10T09:24:14.342Z,21.78
2022-09-10T09:26:42.720Z,21.99
2022-09-10T09:29:17.465Z,21.44
2022-09-10T09:31:50.979Z,21.63
2022-09-10T09:34:23.144Z,22.03
2022-09-10T09:36:52.300Z,21.11
2022-09-10T09:39:35.802Z,21.67
2022-09-10T09:42:25.873Z,22.35
2022-09-10T09:45:18.791Z,22.87
2022-09-10T09:47:46.911Z,23.41
2022-09-10T09:50:14.604Z,23.60
2022-09-10T09:52:41.961Z,22.92
2022-09-10T09:55:35.937Z,23.10
2022-09-10T09:58:21.702Z,23.25
2022-09-10T10:00:49.596Z,23.50
2022-09-10T10:03:27.798Z,23.01
2022-09-10T10:06:08.583Z,23.38
2022-09-10T10:08:41.308Z,23.86
2022-09-10T10:11:08.933Z,23.13
2022-09-10T10:13:44.780Z,23.78
2022-09-10T10:16:26.895Z,24.05
2022-09-10T10:18:54.489Z,23.42
2022-09-10T10:21:31.998Z,23.74
2022-09-10T10:23:59.625Z,24.21
2022-09-10T10:26:31.126Z,23.84
2022-09-10T10:29:17.613Z,24.18
2022-09-10T10:31:46.652Z,24.47
2022-09-10T10:34:16.571Z,23.75
2022-09-10T10:37:01.825Z,23.74
2022-09-10T10:40:04.105Z,23.60
2022-09-10T10:42:37.833Z,23.58
2022-09-10T10:45:39.626Z,24.35
2022-09-10T10:48:25.485Z,23.82
2022-09-10T10:50:53.203Z,23.67
2022-09-10T10:53:23.133Z,24.07
2022-09-10T10:56:13.007Z,24.02
2022-09-10T10:58:53.975Z,23.79
2022-09-10T11:01:24.090Z,23.31
2022-09-10T11:03:54.568Z,22.96
2022-09-10T11:06:27.114Z,23.03
2022-09-10T11:09:08.094Z,23.32
2022-09-10T11:12:04.036Z,23.65
2022-09-10T11:15:00.082Z,23.27
2022-09-10T11:17:40.358Z,23.30
2022-09-10T11:20:28.837Z,22.89
2022-09-10T11:23:18.401Z,23.16
2022-09-10T11:26:21.357Z,23.22
2022-09-10T11:28:54.581Z,23.69
2022-09-10T11:31:38.477Z,23.65
2022-09-10T11:34:20.854Z,23.19
2022-09-10T11:36:52.422Z,23.30
2022-09-10T11:39:30.758Z,23.23
2022-09-10T11:41:58.984Z,23.24
2022-09-10T11:44:57.492Z,22.95
2022-09-10T11:47:38.570Z,23.30
2022-09-10T11:50:18.782Z,23.39
2022-09-10T11:52:46.387Z,23.24
2022-09-10T11:55:14.818Z,23.60
2022-09-10T11:58:03.202Z,23.71
2022-09-10T12:00:30.977Z,24.23
2022-09-10T12:03:08.164Z,23.85
2022-09-10T12:05:48.334Z,24.17
2022-09-10T12:08:32.733Z,24.76
2022-09-10T12:11:31.400Z,24.26
2022-09-10T12:13:59.030Z,24.01
2022-09-10T12:16:38.484Z,24.32
2022-09-10T12:19:08.811Z,23.86
2022-09-10T12:21:41.497Z,24.74
2022-09-10T12:24:39.980Z,25.12
2022-09-10T12:27:07.797Z,24.27
2022-09-10T12:29:40.581Z,24.15
2022-09-10T12:32:12.359Z,24.80
2022-09-10T12:34:40.179Z,24.82
2022-09-10T12:37:19.137Z,24.68
2022-09-10T12:39:46.874Z,25.34
2022-09-10T12:42:25.671Z,24.78
2022-09-10T12:44:54.398Z,24.53
2022-09-10T12:47:29.784Z,24.49
2022-09-10T12:49:58.602Z,24.66
2022-09-10T12:52:35.092Z,24.43
2022-09-10T12:55:37.258Z,24.81
2022-09-10T12:58:26.545Z,25.20
2022-09-10T13:00:54.055Z,24.95
2022-09-10T13:03:24.582Z,24.84
2022-09-10T13:05:54.261Z,24.84
2022-09-10T13:08:32.726Z,24.51
2022-09-10T13:10:59.963Z,24.64
2022-09-10T13:13:39.819Z,24.71
2022-09-10T13:16:12.276Z,24.29
2022-09-10T13:18:42.086Z,24.19
2022-09-10T13:21:24.711Z,23.89
2022-09-10T13:23:55.669Z,23.85
2022-09-10T13:26:26.018Z,24.25
2022-09-10T13:28:57.026Z,23.45
2022-09-10T13:31:27.037Z,23.97
2022-09-10T13:33:56.229Z,23.87
2022-09-10T13:36:42.070Z,24.15
2022-09-10T13:39:23.734Z,23.36
2022-09-10T13:42:12.344Z,23.27
2022-09-10T13:44:56.514Z,24.03
2022-09-10T13:47:47.160Z,23.79
2022-09-10T13:50:15.886Z,23.40
2022-09-10T13:52:45.195Z,24.15
2022-09-10T13:55:38.890Z,23.83
2022-09-10T13:58:12.162Z,23.59
2022-09-10T14:00:42.197Z,23.78
2022-09-10T14:03:19.706Z,23.62
2022-09-10T14:05:49.256Z,23.72
2022-09-10T14:08:30.525Z,23.42
2022-09-10T14:11:04.717Z,22.99
2022-09-10T14:13:54.229Z,23.80
2022-09-10T14:16:30.365Z,24.08
2022-09-10T14:18:59.272Z,23.91
2022-09-10T14:21:29.351Z,23.94
2022-09-10T14:23:59.048Z,24.75
2022-09-10T14:26:31.364Z,24.27
2022-09-10T14:29:01.578Z,24.46
2022-09-10T14:31:31.605Z,24.06
2022-09-10T14:33:59.402Z,24.25
2022-09-10T14:36:29.668Z,24.24
2022-09-10T14:39:20.151Z,24.66
2022-09-10T14:41:47.831Z,24.17
2022-09-10T14:44:20.272Z,23.84
2022-09-10T14:46:57.284Z,24.14
2022-09-10T14:49:27.276Z,24.47
2022-09-10T14:51:58.488Z,24.32
2022-09-10T14:54:27.408Z,24.08
2022-09-10T14:57:04.429Z,24.35
2022-09-10T14:59:36.347Z,24.21
2022-09-10T15:02:08.196Z,23.87
2022-09-10T15:04:36.012Z,24.05
2022-09-10T15:07:03.403Z,23.96
2022-09-10T15:09:31.381Z,24.01
2022-09-10T15:12:09.532Z,24.05
2022-09-10T15:14:36.890Z,23.63
2022-09-10T15:17:04.668Z,23.67
2022-09-10T15:19:32.056Z,23.65
2022-09-10T15:21:59.709Z,23.88
2022-09-10T15:24:28.411Z,24.05
2022-09-10T15:26:56.472Z,24.14
2022-09-10T15:29:24.092Z,24.20
2022-09-10T15:31:51.690Z,23.78
2022-09-10T15:34:19.391Z,23.92
2022-09-10T15:36:46.766Z,23.57
2022-09-10T15:39:15.186Z,23.38
2022-09-10T15:41:43.530Z,23.18
2022-09-10T15:44:11.072Z,23.38
2022-09-10T15:46:42.350Z,23.56
2022-09-10T15:49:09.719Z,23.36
2022-09-10T15:51:37.124Z,23.67
2022-09-10T15:54:05.477Z,23.65
2022-09-10T15:56:33.110Z,23.69
2022-09-10T15:59:00.912Z,23.13
2022-09-10T16:01:29.072Z,23.10
2022-09-10T16:04:03.434Z,23.10
2022-09-10T16:06:37.845Z,23.12
2022-09-10T16:09:10.638Z,23.34
2022-09-10T16:11:39.016Z,23.10
2022-09-10T16:14:08.204Z,22.89
2022-09-10T16:16:35.742Z,23.36
2022-09-10T16:19:03.453Z,23.15
2022-09-10T16:21:32.250Z,23.06
2022-09-10T16:24:00.291Z,23.41
2022-09-10T16:26:35.280Z,23.14
2022-09-10T16:29:06.354Z,22.66
2022-09-10T16:31:35.490Z,22.67
2022-09-10T16:34:04.627Z,22.61
2022-09-10T16:36:33.085Z,22.97
2022-09-10T16:39:03.932Z,22.65
2022-09-10T16:41:33.029Z,22.55
2022-09-10T16:44:00.776Z,22.57
2022-09-10T16:46:28.534Z,22.63
2022-09-10T16:48:56.601Z,22.58
2022-09-10T16:51:24.521Z,22.76
2022-09-10T16:54:02.548Z,22.65
2022-09-10T16:56:34.829Z,22.49
2022-09-10T16:59:02.159Z,22.15
2022-09-10T17:01:31.161Z,22.56
2022-09-10T17:03:58.829Z,22.36
2022-09-10T17:06:27.174Z,22.50
2022-09-10T17:08:55.825Z,22.72
2022-09-10T17:11:26.086Z,22.09
2022-09-10T17:13:54.220Z,22.52
2022-09-10T17:16:23.501Z,21.59
2022-09-10T17:19:01.319Z,21.80
2022-09-10T17:21:32.058Z,21.74
2022-09-10T17:23:59.906Z,21.76
2022-09-10T17:26:27.250Z,21.57
2022-09-10T17:29:09.888Z,21.50
2022-09-10T17:31:37.484Z,21.36
2022-09-10T17:34:05.206Z,21.37
2022-09-10T17:36:32.631Z,20.98
2022-09-10T17:39:00.274Z,20.91
2022-09-10T17:41:28.208Z,20.80
2022-09-10T17:43:55.645Z,21.50
2022-09-10T17:46:24.069Z,20.90
2022-09-10T17:48:51.976Z,21.42
2022-09-10T17:51:23.808Z,21.36
2022-09-10T17:53:51.694Z,21.30
2022-09-10T17:56:19.481Z,21.47
2022-09-10T17:58:49.916Z,21.23
2022-09-10T18:01:23.559Z,21.48
2022-09-10T18:03:51.980Z,21.64
2022-09-10T18:06:19.520Z,21.40
2022-09-10T18:08:46.927Z,21.55
2022-09-10T18:11:16.456Z,21.51
2022-09-10T18:13:44.555Z,20.96
2022-09-10T18:16:14.666Z,21.59
2022-09-10T18:18:44.084Z,21.41
2022-09-10T18:21:14.669Z,21.22
2022-09-10T18:23:44.281Z,21.28
2022-09-10T18:26:15.928Z,20.90
2022-09-10T18:28:44.111Z,21.02
2022-09-10T18:31:11.558Z,21.07
2022-09-10T18:33:39.706Z,20.61
2022-09-10T18:36:14.931Z,20.55
2022-09-10T18:38:42.540Z,21.12
2022-09-10T18:41:26.910Z,21.09
2022-09-10T18:43:56.549Z,20.26
2022-09-10T18:46:24.445Z,20.36
2022-09-10T18:48:52.250Z,20.73
2022-09-10T18:51:20.716Z,20.93
2022-09-10T18:53:49.647Z,21.18
2022-09-10T18:56:18.306Z,21.19
2022-09-10T18:58:53.497Z,21.21
2022-09-10T19:01:21.215Z,21.06
2022-09-10T19:03:48.761Z,21.15
2022-09-10T19:06:26.409Z,20.80
2022-09-10T19:08:55.387Z,20.82
2022-09-10T19:11:24.397Z,20.77
2022-09-10T19:13:53.931Z,20.93
2022-09-10T19:16:23.330Z,20.97
2022-09-10T19:18:51.653Z,21.02
2022-09-10T19:21:20.289Z,20.99
2022-09-10T19:23:49.538Z,21.16
2022-09-10T19:26:18.360Z,21.12
2022-09-10T19:28:45.770Z,20.83
2022-09-10T19:31:15.210Z,21.13
2022-09-10T19:33:42.610Z,20.99
2022-09-10T19:36:11.169Z,20.95
2022-09-10T19:38:39.160Z,20.75
2022-09-10T19:41:06.492Z,20.87
2022-09-10T19:43:34.463Z,20.84
2022-09-10T19:46:05.535Z,20.87
2022-09-10T19:48:33.343Z,20.65
2022-09-10T19:51:02.296Z,20.61
2022-09-10T19:53:31.440Z,20.59
2022-09-10T19:56:09.254Z,20.55
2022-09-10T19:58:37.440Z,20.69
2022-09-10T20:01:15.170Z,20.58
2022-09-10T20:03:47.101Z,20.08
2022-09-10T20:06:15.826Z,19.76
2022-09-10T20:08:44.459Z,19.42
2022-09-10T20:11:20.227Z,20.01
2022-09-10T20:13:48.242Z,20.28
2022-09-10T20:16:16.196Z,20.45
2022-09-10T20:18:43.603Z,20.28
2022-09-10T20:21:16.605Z,19.35
2022-09-10T20:23:46.315Z,19.62
2022-09-10T20:26:18.614Z,19.45
2022-09-10T20:28:50.206Z,19.45
2022-09-10T20:31:17.874Z,18.95
2022-09-10T20:33:45.429Z,18.65
2022-09-10T20:36:15.132Z,18.91
2022-09-10T20:38:43.375Z,19.34
2022-09-10T20:41:12.108Z,18.52
2022-09-10T20:43:39.865Z,18.50
2022-09-10T20:46:14.055Z,18.66
2022-09-10T20:48:43.932Z,19.29
2022-09-10T20:51:14.717Z,19.35
2022-09-10T20:53:43.425Z,19.29
2022-09-10T20:56:12.157Z,19.75
2022-09-10T20:58:40.234Z,19.83
2022-09-10T21:01:10.986Z,20.04
2022-09-10T21:03:38.916Z,19.45
2022-09-10T21:06:08.269Z,19.81
2022-09-10T21:08:39.681Z,19.82
2022-09-10T21:11:08.776Z,20.08
2022-09-10T21:13:36.439Z,19.36
2022-09-10T21:16:09.003Z,19.79
2022-09-10T21:18:37.562Z,19.60
2022-09-10T21:21:08.984Z,19.62
2022-09-10T21:23:41.724Z,19.54
2022-09-10T21:26:09.032Z,19.87
2022-09-10T21:28:36.612Z,19.97
2022-09-10T21:31:05.076Z,19.67
2022-09-10T21:33:33.467Z,19.73
2022-09-10T21:36:06.415Z,19.55
2022-09-10T21:38:37.954Z,19.60
2022-09-10T21:41:06.542Z,19.71
2022-09-10T21:43:34.776Z,19.88
2022-09-10T21:46:02.502Z,19.50
2022-09-10T21:48:31.173Z,19.40
2022-09-10T21:51:05.214Z,19.82
2022-09-10T21:53:33.536Z,19.54
2022-09-10T21:56:01.715Z,19.74
2022-09-10T21:58:30.643Z,19.79
2022-09-10T22:00:58.425Z,19.49
2022-09-10T22:03:27.074Z,19.69
2022-09-10T22:06:07.379Z,19.68
2022-09-10T22:08:35.404Z,19.74
2022-09-10T22:11:12.246Z,19.73
2022-09-10T22:13:43.528Z,19.58
2022-09-10T22:16:14.766Z,19.75
2022-09-10T22:18:42.554Z,19.86
2022-09-10T22:21:10.026Z,19.59
2022-09-10T22:23:38.305Z,19.72
2022-09-10T22:26:08.595Z,19.57
2022-09-10T22:28:36.143Z,19.33
2022-09-10T22:31:11.758Z,19.45
2022-09-10T22:33:43.755Z,19.44
2022-09-10T22:36:21.345Z,19.47
2022-09-10T22:38:56.439Z,19.46
2022-09-10T22:41:23.798Z,18.74
2022-09-10T22:43:51.673Z,18.38
2022-09-10T22:46:19.130Z,18.61
2022-09-10T22:48:46.663Z,18.22
2022-09-10T22:51:16.036Z,18.03
2022-09-10T22:53:44.015Z,18.72
2022-09-10T22:56:13.390Z,18.45
2022-09-10T22:58:41.131Z,18.86
2022-09-10T23:01:15.555Z,18.99
2022-09-10T23:03:43.570Z,19.17
2022-09-10T23:06:18.155Z,19.16
2022-09-10T23:08:47.230Z,19.30
2022-09-10T23:11:19.446Z,19.10
2022-09-10T23:13:57.405Z,19.06
2022-09-10T23:16:29.362Z,18.98
2022-09-10T23:18:57.903Z,18.87
2022-09-10T23:21:25.962Z,19.02
2022-09-10T23:23:56.090Z,18.97
2022-09-10T23:26:23.821Z,18.80
2022-09-10T23:28:51.237Z,19.03
2022-09-10T23:31:20.572Z,19.12
2022-09-10T23:33:55.670Z,19.15
2022-09-10T23:36:23.083Z,18.86
2022-09-10T23:38:50.758Z,18.84
2022-09-10T23:41:18.093Z,18.87
2022-09-10T23:43:45.472Z,18.82
2022-09-10T23:46:13.353Z,18.84
2022-09-10T23:48:42.665Z,18.71
2022-09-10T23:51:11.793Z,18.72
2022-09-10T23:53:39.947Z,18.59
2022-09-10T23:56:07.377Z,17.39
2022-09-10T23:58:35.072Z,18.19
